sensor_id;sensor_type;location;lat;lon;timestamp;noise_LAeq;noise_LA_min;noise_LA_max;noise_LA01;noise_LA95
61321;Laerm;17737;52.586;13.284;2023-07-31T00:00:01;52.53;50.75;68.31;;
61321;Laerm;17737;52.586;13.284;2023-07-31T00:02:30;52.30;50.82;56.70;;
61321;Laerm;17737;52.586;13.284;2023-07-31T00:04:58;52.12;50.79;56.94;;
61321;Laerm;17737;52.586;13.284;2023-07-31T00:07:26;52.15;50.80;57.56;;
61321;Laerm;17737;52.586;13.284;2023-07-31T00:09:54;52.15;50.48;58.37;;
61321;Laerm;17737;52.586;13.284;2023-07-31T00:12:23;52.19;50.76;68.46;;
61321;Laerm;17737;52.586;13.284;2023-07-31T00:14:53;52.16;50.67;56.87;;
61321;Laerm;17737;52.586;13.284;2023-07-31T00:17:21;53.61;50.78;68.14;;
61321;Laerm;17737;52.586;13.284;2023-07-31T00:19:49;53.35;50.92;61.77;;
61321;Laerm;17737;52.586;13.284;2023-07-31T00:22:17;52.56;50.73;59.31;;
61321;Laerm;17737;52.586;13.284;2023-07-31T00:24:45;52.18;50.37;58.63;;
61321;Laerm;17737;52.586;13.284;2023-07-31T00:27:13;52.44;50.86;58.41;;
61321;Laerm;17737;52.586;13.284;2023-07-31T00:29:41;52.44;50.93;58.50;;
61321;Laerm;17737;52.586;13.284;2023-07-31T00:32:11;52.87;50.94;59.39;;
61321;Laerm;17737;52.586;13.284;2023-07-31T00:34:39;52.38;50.84;68.07;;
61321;Laerm;17737;52.586;13.284;2023-07-31T00:37:07;52.19;50.87;56.77;;
61321;Laerm;17737;52.586;13.284;2023-07-31T00:39:35;52.49;50.82;57.34;;
61321;Laerm;17737;52.586;13.284;2023-07-31T00:42:04;52.20;50.49;57.14;;
61321;Laerm;17737;52.586;13.284;2023-07-31T00:44:32;52.83;50.86;68.33;;
61321;Laerm;17737;52.586;13.284;2023-07-31T00:47:01;52.19;50.89;58.98;;
61321;Laerm;17737;52.586;13.284;2023-07-31T00:49:30;54.11;50.76;69.49;;
61321;Laerm;17737;52.586;13.284;2023-07-31T00:51:59;52.24;50.88;67.82;;
61321;Laerm;17737;52.586;13.284;2023-07-31T00:54:27;52.20;50.88;56.65;;
61321;Laerm;17737;52.586;13.284;2023-07-31T00:56:56;52.19;50.70;59.60;;
61321;Laerm;17737;52.586;13.284;2023-07-31T00:59:24;52.23;50.84;68.30;;
61321;Laerm;17737;52.586;13.284;2023-07-31T01:01:52;52.67;50.76;60.19;;
61321;Laerm;17737;52.586;13.284;2023-07-31T01:04:21;52.18;50.84;57.12;;
61321;Laerm;17737;52.586;13.284;2023-07-31T01:07:01;52.25;50.75;69.00;;
61321;Laerm;17737;52.586;13.284;2023-07-31T01:09:40;52.51;50.78;58.91;;
61321;Laerm;17737;52.586;13.284;2023-07-31T01:12:14;52.24;50.77;68.96;;
61321;Laerm;17737;52.586;13.284;2023-07-31T01:14:52;52.17;50.90;57.26;;
61321;Laerm;17737;52.586;13.284;2023-07-31T01:17:29;52.16;50.68;57.01;;
61321;Laerm;17737;52.586;13.284;2023-07-31T01:20:02;53.38;50.92;62.65;;
61321;Laerm;17737;52.586;13.284;2023-07-31T01:22:53;52.15;50.77;56.38;;
61321;Laerm;17737;52.586;13.284;2023-07-31T01:25:56;52.36;50.86;56.88;;
61321;Laerm;17737;52.586;13.284;2023-07-31T01:28:40;52.23;50.86;58.89;;
61321;Laerm;17737;52.586;13.284;2023-07-31T01:31:18;52.35;50.86;57.12;;
61321;Laerm;17737;52.586;13.284;2023-07-31T01:33:49;52.51;50.79;58.93;;
61321;Laerm;17737;52.586;13.284;2023-07-31T01:36:18;53.52;50.93;64.07;;
61321;Laerm;17737;52.586;13.284;2023-07-31T01:38:46;52.39;50.83;58.24;;
61321;Laerm;17737;52.586;13.284;2023-07-31T01:41:17;52.48;50.92;56.99;;
61321;Laerm;17737;52.586;13.284;2023-07-31T01:43:46;52.38;50.93;59.11;;
61321;Laerm;17737;52.586;13.284;2023-07-31T01:46:14;52.97;51.10;59.01;;
61321;Laerm;17737;52.586;13.284;2023-07-31T01:48:43;53.39;50.95;62.47;;
61321;Laerm;17737;52.586;13.284;2023-07-31T01:51:11;52.64;50.68;59.10;;
61321;Laerm;17737;52.586;13.284;2023-07-31T01:53:39;52.31;51.04;57.75;;
61321;Laerm;17737;52.586;13.284;2023-07-31T01:56:07;52.28;50.89;56.02;;
61321;Laerm;17737;52.586;13.284;2023-07-31T01:58:36;53.02;51.03;59.07;;
61321;Laerm;17737;52.586;13.284;2023-07-31T02:01:04;52.26;50.72;68.14;;
61321;Laerm;17737;52.586;13.284;2023-07-31T02:03:32;52.33;50.65;58.49;;
61321;Laerm;17737;52.586;13.284;2023-07-31T02:06:01;53.84;50.82;64.43;;
61321;Laerm;17737;52.586;13.284;2023-07-31T02:08:29;52.18;50.98;57.26;;
61321;Laerm;17737;52.586;13.284;2023-07-31T02:10:57;52.19;50.90;58.75;;
61321;Laerm;17737;52.586;13.284;2023-07-31T02:13:25;52.19;50.91;56.40;;
61321;Laerm;17737;52.586;13.284;2023-07-31T02:15:54;53.70;50.79;65.23;;
61321;Laerm;17737;52.586;13.284;2023-07-31T02:18:23;52.28;50.57;68.30;;
61321;Laerm;17737;52.586;13.284;2023-07-31T02:20:51;52.23;50.79;59.56;;
61321;Laerm;17737;52.586;13.284;2023-07-31T02:23:19;52.30;50.76;57.79;;
61321;Laerm;17737;52.586;13.284;2023-07-31T02:25:47;53.08;50.93;62.29;;
61321;Laerm;17737;52.586;13.284;2023-07-31T02:28:15;53.36;51.03;60.06;;
61321;Laerm;17737;52.586;13.284;2023-07-31T02:30:44;52.35;50.92;58.30;;
61321;Laerm;17737;52.586;13.284;2023-07-31T02:33:15;52.81;50.98;68.64;;
61321;Laerm;17737;52.586;13.284;2023-07-31T02:35:43;52.25;50.68;57.62;;
61321;Laerm;17737;52.586;13.284;2023-07-31T02:38:11;52.98;50.86;60.59;;
61321;Laerm;17737;52.586;13.284;2023-07-31T02:40:39;53.51;50.73;63.62;;
61321;Laerm;17737;52.586;13.284;2023-07-31T02:43:08;52.25;50.98;58.08;;
61321;Laerm;17737;52.586;13.284;2023-07-31T02:45:36;53.20;50.82;62.87;;
61321;Laerm;17737;52.586;13.284;2023-07-31T02:48:04;52.72;50.95;59.99;;
61321;Laerm;17737;52.586;13.284;2023-07-31T02:50:34;53.13;50.92;63.25;;
61321;Laerm;17737;52.586;13.284;2023-07-31T02:53:02;52.26;50.82;58.48;;
61321;Laerm;17737;52.586;13.284;2023-07-31T02:55:30;52.27;50.61;56.72;;
61321;Laerm;17737;52.586;13.284;2023-07-31T02:57:58;53.85;51.04;63.06;;
61321;Laerm;17737;52.586;13.284;2023-07-31T03:00:26;53.57;51.02;61.84;;
61321;Laerm;17737;52.586;13.284;2023-07-31T03:02:54;54.01;51.20;61.29;;
61321;Laerm;17737;52.586;13.284;2023-07-31T03:05:22;52.73;50.84;59.67;;
61321;Laerm;17737;52.586;13.284;2023-07-31T03:07:52;54.08;50.80;61.43;;
61321;Laerm;17737;52.586;13.284;2023-07-31T03:10:20;52.35;50.96;68.87;;
61321;Laerm;17737;52.586;13.284;2023-07-31T03:12:48;54.13;51.19;60.93;;
61321;Laerm;17737;52.586;13.284;2023-07-31T03:15:16;54.03;51.00;61.23;;
61321;Laerm;17737;52.586;13.284;2023-07-31T03:17:44;53.33;51.08;58.63;;
61321;Laerm;17737;52.586;13.284;2023-07-31T03:20:12;54.39;50.99;61.25;;
61321;Laerm;17737;52.586;13.284;2023-07-31T03:22:41;53.09;51.01;68.40;;
61321;Laerm;17737;52.586;13.284;2023-07-31T03:25:11;53.59;51.10;61.86;;
61321;Laerm;17737;52.586;13.284;2023-07-31T03:27:39;54.00;50.98;68.79;;
61321;Laerm;17737;52.586;13.284;2023-07-31T03:30:08;53.41;51.00;58.58;;
61321;Laerm;17737;52.586;13.284;2023-07-31T03:32:36;56.14;51.25;68.43;;
61321;Laerm;17737;52.586;13.284;2023-07-31T03:35:05;54.38;50.95;60.24;;
61321;Laerm;17737;52.586;13.284;2023-07-31T03:37:33;54.72;51.04;68.91;;
61321;Laerm;17737;52.586;13.284;2023-07-31T03:40:01;54.22;51.19;60.02;;
61321;Laerm;17737;52.586;13.284;2023-07-31T03:42:32;54.73;51.21;69.10;;
61321;Laerm;17737;52.586;13.284;2023-07-31T03:45:00;55.17;51.28;68.92;;
61321;Laerm;17737;52.586;13.284;2023-07-31T03:47:28;55.23;51.02;64.94;;
61321;Laerm;17737;52.586;13.284;2023-07-31T03:49:56;55.80;50.90;67.56;;
61321;Laerm;17737;52.586;13.284;2023-07-31T03:52:24;52.76;50.86;58.26;;
61321;Laerm;17737;52.586;13.284;2023-07-31T03:54:53;53.59;50.87;60.35;;
61321;Laerm;17737;52.586;13.284;2023-07-31T03:57:21;53.88;51.10;60.30;;
61321;Laerm;17737;52.586;13.284;2023-07-31T03:59:50;54.79;50.95;66.15;;
61321;Laerm;17737;52.586;13.284;2023-07-31T04:02:18;54.86;50.92;68.39;;
61321;Laerm;17737;52.586;13.284;2023-07-31T04:04:46;55.01;50.94;63.25;;
61321;Laerm;17737;52.586;13.284;2023-07-31T04:07:14;54.87;50.94;61.10;;
61321;Laerm;17737;52.586;13.284;2023-07-31T04:09:42;55.06;50.89;62.31;;
61321;Laerm;17737;52.586;13.284;2023-07-31T04:12:10;54.19;50.93;61.15;;
61321;Laerm;17737;52.586;13.284;2023-07-31T04:14:38;54.49;51.04;62.06;;
61321;Laerm;17737;52.586;13.284;2023-07-31T04:17:07;54.47;50.85;61.90;;
61321;Laerm;17737;52.586;13.284;2023-07-31T04:19:38;54.18;51.06;62.08;;
61321;Laerm;17737;52.586;13.284;2023-07-31T04:22:06;55.07;51.06;62.40;;
61321;Laerm;17737;52.586;13.284;2023-07-31T04:24:34;54.68;51.00;61.46;;
61321;Laerm;17737;52.586;13.284;2023-07-31T04:27:02;54.68;50.60;62.00;;
61321;Laerm;17737;52.586;13.284;2023-07-31T04:29:30;55.30;51.18;67.87;;
61321;Laerm;17737;52.586;13.284;2023-07-31T04:31:58;57.11;51.15;66.28;;
61321;Laerm;17737;52.586;13.284;2023-07-31T04:34:28;55.37;51.03;61.86;;
61321;Laerm;17737;52.586;13.284;2023-07-31T04:36:56;53.64;50.71;68.87;;
61321;Laerm;17737;52.586;13.284;2023-07-31T04:39:24;54.94;50.99;61.84;;
61321;Laerm;17737;52.586;13.284;2023-07-31T04:41:52;55.62;51.19;61.91;;
61321;Laerm;17737;52.586;13.284;2023-07-31T04:44:20;53.66;51.02;62.38;;
61321;Laerm;17737;52.586;13.284;2023-07-31T04:46:48;54.72;50.99;61.77;;
61321;Laerm;17737;52.586;13.284;2023-07-31T04:49:16;55.53;51.31;61.85;;
61321;Laerm;17737;52.586;13.284;2023-07-31T04:51:45;55.29;51.54;60.46;;
61321;Laerm;17737;52.586;13.284;2023-07-31T04:54:13;54.17;50.91;68.50;;
61321;Laerm;17737;52.586;13.284;2023-07-31T04:56:41;56.11;50.57;65.11;;
61321;Laerm;17737;52.586;13.284;2023-07-31T04:59:09;52.74;50.82;59.03;;
61321;Laerm;17737;52.586;13.284;2023-07-31T05:01:37;55.35;51.02;62.16;;
61321;Laerm;17737;52.586;13.284;2023-07-31T05:04:05;56.05;51.10;63.00;;
61321;Laerm;17737;52.586;13.284;2023-07-31T05:06:33;55.37;51.00;61.27;;
61321;Laerm;17737;52.586;13.284;2023-07-31T05:09:03;56.90;51.17;67.14;;
61321;Laerm;17737;52.586;13.284;2023-07-31T05:11:31;55.03;51.13;68.27;;
61321;Laerm;17737;52.586;13.284;2023-07-31T05:13:59;55.66;51.13;62.26;;
61321;Laerm;17737;52.586;13.284;2023-07-31T05:16:27;53.81;50.98;62.45;;
61321;Laerm;17737;52.586;13.284;2023-07-31T05:18:56;55.41;50.95;68.25;;
61321;Laerm;17737;52.586;13.284;2023-07-31T05:21:24;55.71;51.21;62.77;;
61321;Laerm;17737;52.586;13.284;2023-07-31T05:23:53;56.19;50.92;63.51;;
61321;Laerm;17737;52.586;13.284;2023-07-31T05:26:22;55.27;51.25;68.47;;
61321;Laerm;17737;52.586;13.284;2023-07-31T05:28:50;55.43;51.15;68.27;;
61321;Laerm;17737;52.586;13.284;2023-07-31T05:31:18;57.00;51.04;63.49;;
61321;Laerm;17737;52.586;13.284;2023-07-31T05:33:47;56.42;51.06;68.23;;
61321;Laerm;17737;52.586;13.284;2023-07-31T05:36:16;55.37;51.12;68.23;;
61321;Laerm;17737;52.586;13.284;2023-07-31T05:38:45;57.32;51.04;64.37;;
61321;Laerm;17737;52.586;13.284;2023-07-31T05:41:13;54.54;51.03;61.25;;
61321;Laerm;17737;52.586;13.284;2023-07-31T05:43:42;56.31;50.83;63.06;;
61321;Laerm;17737;52.586;13.284;2023-07-31T05:46:10;55.13;50.92;67.69;;
61321;Laerm;17737;52.586;13.284;2023-07-31T05:48:38;56.01;50.98;62.61;;
61321;Laerm;17737;52.586;13.284;2023-07-31T05:51:07;54.64;50.96;61.66;;
61321;Laerm;17737;52.586;13.284;2023-07-31T05:53:35;56.24;51.22;62.56;;
61321;Laerm;17737;52.586;13.284;2023-07-31T05:56:07;56.79;51.03;64.64;;
61321;Laerm;17737;52.586;13.284;2023-07-31T05:58:35;57.66;54.16;66.27;;
61321;Laerm;17737;52.586;13.284;2023-07-31T06:01:05;58.91;54.22;79.65;;
61321;Laerm;17737;52.586;13.284;2023-07-31T06:03:33;57.93;51.78;66.60;;
61321;Laerm;17737;52.586;13.284;2023-07-31T06:06:01;55.58;51.54;61.82;;
61321;Laerm;17737;52.586;13.284;2023-07-31T06:08:30;55.35;51.05;63.61;;
61321;Laerm;17737;52.586;13.284;2023-07-31T06:10:58;55.92;51.38;61.50;;
61321;Laerm;17737;52.586;13.284;2023-07-31T06:13:26;56.35;51.13;63.86;;
61321;Laerm;17737;52.586;13.284;2023-07-31T06:15:54;55.19;50.98;64.54;;
61321;Laerm;17737;52.586;13.284;2023-07-31T06:18:23;54.70;50.81;65.90;;
61321;Laerm;17737;52.586;13.284;2023-07-31T06:20:51;56.16;51.08;68.53;;
61321;Laerm;17737;52.586;13.284;2023-07-31T06:23:20;56.46;50.95;67.73;;
61321;Laerm;17737;52.586;13.284;2023-07-31T06:25:48;55.86;51.36;61.08;;
61321;Laerm;17737;52.586;13.284;2023-07-31T06:28:16;56.47;50.92;62.50;;
61321;Laerm;17737;52.586;13.284;2023-07-31T06:30:44;56.26;50.97;65.23;;
61321;Laerm;17737;52.586;13.284;2023-07-31T06:33:13;54.89;51.10;61.41;;
61321;Laerm;17737;52.586;13.284;2023-07-31T06:35:42;56.73;50.98;69.01;;
61321;Laerm;17737;52.586;13.284;2023-07-31T06:38:10;55.81;51.23;66.69;;
61321;Laerm;17737;52.586;13.284;2023-07-31T06:40:38;56.91;50.96;64.49;;
61321;Laerm;17737;52.586;13.284;2023-07-31T06:43:06;56.85;51.28;64.75;;
61321;Laerm;17737;52.586;13.284;2023-07-31T06:45:36;56.37;51.18;67.98;;
61321;Laerm;17737;52.586;13.284;2023-07-31T06:48:05;56.27;51.19;67.75;;
61321;Laerm;17737;52.586;13.284;2023-07-31T06:50:33;57.61;51.19;66.90;;
61321;Laerm;17737;52.586;13.284;2023-07-31T06:53:02;55.78;51.06;63.36;;
61321;Laerm;17737;52.586;13.284;2023-07-31T06:55:33;55.26;51.10;71.95;;
61321;Laerm;17737;52.586;13.284;2023-07-31T06:58:01;55.49;51.07;65.34;;
61321;Laerm;17737;52.586;13.284;2023-07-31T07:00:29;56.19;51.48;66.45;;
61321;Laerm;17737;52.586;13.284;2023-07-31T07:02:58;58.63;51.88;77.93;;
61321;Laerm;17737;52.586;13.284;2023-07-31T07:05:27;55.13;51.18;60.95;;
61321;Laerm;17737;52.586;13.284;2023-07-31T07:07:55;54.28;51.03;59.95;;
61321;Laerm;17737;52.586;13.284;2023-07-31T07:10:24;56.93;51.42;64.48;;
61321;Laerm;17737;52.586;13.284;2023-07-31T07:12:53;55.32;51.24;69.03;;
61321;Laerm;17737;52.586;13.284;2023-07-31T07:15:22;54.30;51.00;67.65;;
61321;Laerm;17737;52.586;13.284;2023-07-31T07:17:50;55.22;51.17;60.97;;
61321;Laerm;17737;52.586;13.284;2023-07-31T07:20:18;53.61;50.96;61.69;;
61321;Laerm;17737;52.586;13.284;2023-07-31T07:22:46;54.82;51.01;61.93;;
61321;Laerm;17737;52.586;13.284;2023-07-31T07:25:18;54.73;50.91;60.19;;
61321;Laerm;17737;52.586;13.284;2023-07-31T07:27:47;54.82;51.34;62.00;;
61321;Laerm;17737;52.586;13.284;2023-07-31T07:30:15;54.87;51.05;68.78;;
61321;Laerm;17737;52.586;13.284;2023-07-31T07:32:44;56.23;51.23;67.30;;
61321;Laerm;17737;52.586;13.284;2023-07-31T07:35:12;55.56;51.16;62.84;;
61321;Laerm;17737;52.586;13.284;2023-07-31T07:37:40;55.45;52.34;68.09;;
61321;Laerm;17737;52.586;13.284;2023-07-31T07:40:09;55.92;51.18;66.32;;
61321;Laerm;17737;52.586;13.284;2023-07-31T07:42:37;55.17;50.96;62.28;;
61321;Laerm;17737;52.586;13.284;2023-07-31T07:45:08;55.37;51.32;60.15;;
61321;Laerm;17737;52.586;13.284;2023-07-31T07:47:37;54.49;51.09;59.75;;
61321;Laerm;17737;52.586;13.284;2023-07-31T07:50:07;54.85;51.00;67.84;;
61321;Laerm;17737;52.586;13.284;2023-07-31T07:52:35;55.58;51.12;61.67;;
61321;Laerm;17737;52.586;13.284;2023-07-31T07:55:04;54.45;50.99;61.36;;
61321;Laerm;17737;52.586;13.284;2023-07-31T07:57:32;54.92;51.07;68.45;;
61321;Laerm;17737;52.586;13.284;2023-07-31T07:59:59;54.15;51.09;65.32;;
61321;Laerm;17737;52.586;13.284;2023-07-31T08:02:29;54.16;51.11;60.38;;
61321;Laerm;17737;52.586;13.284;2023-07-31T08:04:57;54.27;50.86;67.85;;
61321;Laerm;17737;52.586;13.284;2023-07-31T08:07:25;54.91;51.43;62.27;;
61321;Laerm;17737;52.586;13.284;2023-07-31T08:09:53;54.69;51.29;70.81;;
61321;Laerm;17737;52.586;13.284;2023-07-31T08:12:21;54.62;51.21;60.44;;
61321;Laerm;17737;52.586;13.284;2023-07-31T08:14:49;54.16;50.81;62.73;;
61321;Laerm;17737;52.586;13.284;2023-07-31T08:17:18;55.21;51.17;61.34;;
61321;Laerm;17737;52.586;13.284;2023-07-31T08:19:47;54.30;51.07;60.99;;
61321;Laerm;17737;52.586;13.284;2023-07-31T08:22:15;54.16;50.87;68.07;;
61321;Laerm;17737;52.586;13.284;2023-07-31T08:24:43;53.63;50.88;59.53;;
61321;Laerm;17737;52.586;13.284;2023-07-31T08:27:12;54.57;50.83;68.37;;
61321;Laerm;17737;52.586;13.284;2023-07-31T08:29:40;54.27;50.93;61.30;;
61321;Laerm;17737;52.586;13.284;2023-07-31T08:32:08;53.66;51.08;60.44;;
61321;Laerm;17737;52.586;13.284;2023-07-31T08:34:36;53.68;50.63;58.86;;
61321;Laerm;17737;52.586;13.284;2023-07-31T08:37:06;55.56;51.15;64.53;;
61321;Laerm;17737;52.586;13.284;2023-07-31T08:39:34;53.76;50.77;67.66;;
61321;Laerm;17737;52.586;13.284;2023-07-31T08:42:02;54.85;50.92;67.09;;
61321;Laerm;17737;52.586;13.284;2023-07-31T08:44:31;54.20;51.21;61.09;;
61321;Laerm;17737;52.586;13.284;2023-07-31T08:47:00;53.16;50.81;67.58;;
61321;Laerm;17737;52.586;13.284;2023-07-31T08:49:30;54.37;51.02;68.28;;
61321;Laerm;17737;52.586;13.284;2023-07-31T08:51:58;53.73;50.90;68.54;;
61321;Laerm;17737;52.586;13.284;2023-07-31T08:54:29;55.03;51.11;62.64;;
61321;Laerm;17737;52.586;13.284;2023-07-31T08:57:00;53.96;50.91;64.32;;
61321;Laerm;17737;52.586;13.284;2023-07-31T08:59:31;54.67;50.86;67.66;;
61321;Laerm;17737;52.586;13.284;2023-07-31T09:02:07;54.14;50.86;59.87;;
61321;Laerm;17737;52.586;13.284;2023-07-31T09:04:36;54.04;50.98;61.05;;
61321;Laerm;17737;52.586;13.284;2023-07-31T09:07:05;54.47;51.10;59.60;;
61321;Laerm;17737;52.586;13.284;2023-07-31T09:09:37;54.45;50.90;66.42;;
61321;Laerm;17737;52.586;13.284;2023-07-31T09:12:07;54.56;51.27;67.39;;
61321;Laerm;17737;52.586;13.284;2023-07-31T09:14:35;54.91;51.04;60.92;;
61321;Laerm;17737;52.586;13.284;2023-07-31T09:17:03;53.48;50.92;60.21;;
61321;Laerm;17737;52.586;13.284;2023-07-31T09:19:34;54.82;51.21;64.21;;
61321;Laerm;17737;52.586;13.284;2023-07-31T09:22:04;54.67;51.00;60.86;;
61321;Laerm;17737;52.586;13.284;2023-07-31T09:24:34;54.16;50.96;67.61;;
61321;Laerm;17737;52.586;13.284;2023-07-31T09:27:05;54.06;50.78;66.86;;
61321;Laerm;17737;52.586;13.284;2023-07-31T09:29:33;56.71;51.32;66.55;;
61321;Laerm;17737;52.586;13.284;2023-07-31T09:32:02;54.67;51.02;61.73;;
61321;Laerm;17737;52.586;13.284;2023-07-31T09:34:37;55.46;51.18;64.53;;
61321;Laerm;17737;52.586;13.284;2023-07-31T09:37:06;54.64;51.36;60.34;;
61321;Laerm;17737;52.586;13.284;2023-07-31T09:39:45;54.54;51.08;62.66;;
61321;Laerm;17737;52.586;13.284;2023-07-31T09:42:25;55.13;51.02;68.14;;
61321;Laerm;17737;52.586;13.284;2023-07-31T09:45:07;54.33;50.94;62.77;;
61321;Laerm;17737;52.586;13.284;2023-07-31T09:47:36;55.53;50.87;62.08;;
61321;Laerm;17737;52.586;13.284;2023-07-31T09:50:07;55.37;51.19;61.55;;
61321;Laerm;17737;52.586;13.284;2023-07-31T09:52:39;56.39;51.71;63.64;;
61321;Laerm;17737;52.586;13.284;2023-07-31T09:55:07;55.13;51.26;59.68;;
61321;Laerm;17737;52.586;13.284;2023-07-31T09:57:40;54.69;51.18;67.71;;
61321;Laerm;17737;52.586;13.284;2023-07-31T10:00:11;54.03;51.07;60.39;;
61321;Laerm;17737;52.586;13.284;2023-07-31T10:02:39;55.06;51.43;61.94;;
61321;Laerm;17737;52.586;13.284;2023-07-31T10:05:08;53.87;50.93;68.02;;
61321;Laerm;17737;52.586;13.284;2023-07-31T10:07:38;54.92;51.00;60.84;;
61321;Laerm;17737;52.586;13.284;2023-07-31T10:10:08;54.36;51.00;74.96;;
61321;Laerm;17737;52.586;13.284;2023-07-31T10:12:38;55.58;51.08;68.33;;
61321;Laerm;17737;52.586;13.284;2023-07-31T10:15:09;56.82;54.15;69.21;;
61321;Laerm;17737;52.586;13.284;2023-07-31T10:17:38;58.07;52.12;71.74;;
61321;Laerm;17737;52.586;13.284;2023-07-31T10:20:07;55.00;51.23;60.94;;
61321;Laerm;17737;52.586;13.284;2023-07-31T10:22:36;54.40;51.09;60.23;;
61321;Laerm;17737;52.586;13.284;2023-07-31T10:25:08;54.25;51.05;62.29;;
61321;Laerm;17737;52.586;13.284;2023-07-31T10:27:39;53.69;51.02;60.18;;
61321;Laerm;17737;52.586;13.284;2023-07-31T10:30:11;54.83;51.31;66.30;;
61321;Laerm;17737;52.586;13.284;2023-07-31T10:32:44;56.79;51.82;73.26;;
61321;Laerm;17737;52.586;13.284;2023-07-31T10:35:16;58.58;52.18;76.78;;
61321;Laerm;17737;52.586;13.284;2023-07-31T10:37:45;61.57;52.44;82.45;;
61321;Laerm;17737;52.586;13.284;2023-07-31T10:40:17;54.89;51.16;62.93;;
61321;Laerm;17737;52.586;13.284;2023-07-31T10:42:50;55.37;50.98;74.31;;
61321;Laerm;17737;52.586;13.284;2023-07-31T10:45:25;56.14;51.02;62.07;;
61321;Laerm;17737;52.586;13.284;2023-07-31T10:48:00;55.53;50.86;67.57;;
61321;Laerm;17737;52.586;13.284;2023-07-31T10:50:29;54.75;50.96;61.31;;
61321;Laerm;17737;52.586;13.284;2023-07-31T10:53:00;54.19;50.96;60.32;;
61321;Laerm;17737;52.586;13.284;2023-07-31T10:55:31;55.47;51.26;63.11;;
61321;Laerm;17737;52.586;13.284;2023-07-31T10:58:08;55.07;51.01;62.40;;
61321;Laerm;17737;52.586;13.284;2023-07-31T11:00:38;55.17;51.15;67.08;;
61321;Laerm;17737;52.586;13.284;2023-07-31T11:03:10;54.56;51.08;59.67;;
61321;Laerm;17737;52.586;13.284;2023-07-31T11:05:48;54.31;50.93;60.07;;
61321;Laerm;17737;52.586;13.284;2023-07-31T11:08:20;55.14;50.87;64.35;;
61321;Laerm;17737;52.586;13.284;2023-07-31T11:10:51;54.07;50.76;60.75;;
61321;Laerm;17737;52.586;13.284;2023-07-31T11:13:41;54.83;50.89;62.37;;
61321;Laerm;17737;52.586;13.284;2023-07-31T11:16:10;55.06;50.88;64.80;;
61321;Laerm;17737;52.586;13.284;2023-07-31T11:18:40;54.72;50.85;66.13;;
61321;Laerm;17737;52.586;13.284;2023-07-31T11:21:12;54.77;50.66;60.88;;
61321;Laerm;17737;52.586;13.284;2023-07-31T11:23:41;53.40;50.69;60.17;;
61321;Laerm;17737;52.586;13.284;2023-07-31T11:26:13;53.74;50.90;60.25;;
61321;Laerm;17737;52.586;13.284;2023-07-31T11:28:46;53.53;50.88;67.24;;
61321;Laerm;17737;52.586;13.284;2023-07-31T11:31:14;54.07;50.62;61.68;;
61321;Laerm;17737;52.586;13.284;2023-07-31T11:33:42;54.10;50.50;60.25;;
61321;Laerm;17737;52.586;13.284;2023-07-31T11:36:15;55.08;50.75;65.33;;
61321;Laerm;17737;52.586;13.284;2023-07-31T11:38:44;54.55;50.39;61.01;;
61321;Laerm;17737;52.586;13.284;2023-07-31T11:41:15;53.97;50.67;62.08;;
61321;Laerm;17737;52.586;13.284;2023-07-31T11:43:45;54.18;50.49;59.66;;
61321;Laerm;17737;52.586;13.284;2023-07-31T11:46:15;55.53;51.30;63.07;;
61321;Laerm;17737;52.586;13.284;2023-07-31T11:48:44;53.91;50.51;66.09;;
61321;Laerm;17737;52.586;13.284;2023-07-31T11:51:14;54.57;50.83;61.86;;
61321;Laerm;17737;52.586;13.284;2023-07-31T11:53:45;56.27;50.93;79.27;;
61321;Laerm;17737;52.586;13.284;2023-07-31T11:56:18;54.29;51.00;60.29;;
61321;Laerm;17737;52.586;13.284;2023-07-31T11:58:52;54.40;51.04;62.50;;
61321;Laerm;17737;52.586;13.284;2023-07-31T12:01:22;53.78;50.74;59.25;;
61321;Laerm;17737;52.586;13.284;2023-07-31T12:03:52;55.99;50.99;65.90;;
61321;Laerm;17737;52.586;13.284;2023-07-31T12:06:20;54.96;50.67;66.99;;
61321;Laerm;17737;52.586;13.284;2023-07-31T12:08:49;53.75;50.63;60.43;;
61321;Laerm;17737;52.586;13.284;2023-07-31T12:11:17;53.31;50.54;65.99;;
61321;Laerm;17737;52.586;13.284;2023-07-31T12:13:45;53.88;51.04;64.78;;
61321;Laerm;17737;52.586;13.284;2023-07-31T12:16:14;54.13;50.83;59.99;;
61321;Laerm;17737;52.586;13.284;2023-07-31T12:18:43;54.28;50.54;66.23;;
61321;Laerm;17737;52.586;13.284;2023-07-31T12:21:11;54.57;50.75;59.73;;
61321;Laerm;17737;52.586;13.284;2023-07-31T12:23:40;55.11;51.12;67.09;;
61321;Laerm;17737;52.586;13.284;2023-07-31T12:26:11;54.50;50.46;67.17;;
61321;Laerm;17737;52.586;13.284;2023-07-31T12:28:42;54.76;50.99;60.27;;
61321;Laerm;17737;52.586;13.284;2023-07-31T12:31:12;60.39;51.11;77.64;;
61321;Laerm;17737;52.586;13.284;2023-07-31T12:33:42;53.64;50.74;62.10;;
61321;Laerm;17737;52.586;13.284;2023-07-31T12:36:12;55.37;50.85;66.65;;
61321;Laerm;17737;52.586;13.284;2023-07-31T12:38:41;55.07;50.91;61.43;;
61321;Laerm;17737;52.586;13.284;2023-07-31T12:41:09;55.39;50.72;71.62;;
61321;Laerm;17737;52.586;13.284;2023-07-31T12:43:41;55.25;50.88;61.11;;
61321;Laerm;17737;52.586;13.284;2023-07-31T12:46:09;55.08;50.98;66.41;;
61321;Laerm;17737;52.586;13.284;2023-07-31T12:48:38;54.50;51.00;63.16;;
61321;Laerm;17737;52.586;13.284;2023-07-31T12:51:08;56.29;51.14;67.47;;
61321;Laerm;17737;52.586;13.284;2023-07-31T12:53:36;62.83;51.23;80.67;;
61321;Laerm;17737;52.586;13.284;2023-07-31T12:56:04;55.77;51.25;64.24;;
61321;Laerm;17737;52.586;13.284;2023-07-31T12:58:32;57.68;50.96;65.35;;
61321;Laerm;17737;52.586;13.284;2023-07-31T13:01:00;56.05;50.96;62.19;;
61321;Laerm;17737;52.586;13.284;2023-07-31T13:03:29;55.92;50.90;64.64;;
61321;Laerm;17737;52.586;13.284;2023-07-31T13:05:57;55.67;50.95;62.61;;
61321;Laerm;17737;52.586;13.284;2023-07-31T13:08:26;54.51;50.87;62.70;;
61321;Laerm;17737;52.586;13.284;2023-07-31T13:10:54;59.22;52.27;67.02;;
61321;Laerm;17737;52.586;13.284;2023-07-31T13:13:23;58.17;51.43;66.91;;
61321;Laerm;17737;52.586;13.284;2023-07-31T13:15:51;58.37;51.14;65.06;;
61321;Laerm;17737;52.586;13.284;2023-07-31T13:18:19;57.56;51.22;65.08;;
61321;Laerm;17737;52.586;13.284;2023-07-31T13:20:47;57.51;51.37;72.27;;
61321;Laerm;17737;52.586;13.284;2023-07-31T13:23:15;56.52;50.90;63.65;;
61321;Laerm;17737;52.586;13.284;2023-07-31T13:25:44;56.51;51.06;63.23;;
61321;Laerm;17737;52.586;13.284;2023-07-31T13:28:12;57.06;51.34;65.80;;
61321;Laerm;17737;52.586;13.284;2023-07-31T13:30:41;57.10;51.11;64.14;;
61321;Laerm;17737;52.586;13.284;2023-07-31T13:33:09;55.08;50.85;62.40;;
61321;Laerm;17737;52.586;13.284;2023-07-31T13:35:57;55.44;50.91;63.03;;
61321;Laerm;17737;52.586;13.284;2023-07-31T13:38:25;56.84;50.79;64.37;;
61321;Laerm;17737;52.586;13.284;2023-07-31T13:40:54;56.22;51.18;62.86;;
61321;Laerm;17737;52.586;13.284;2023-07-31T13:43:23;55.18;51.00;63.40;;